Time;durP1;ratioP1;P1;durP2;ratioP2;P2;SDS_P1;SDS_P2;PMS_P1;PMS_P2;Temp;Humidity;BMP_temperature;BMP_pressure;BME280_temperature;BME280_humidity;BME280_pressure;Samples;Min_cycle;Max_cycle;Signal;HPM_P1;HPM_P2
2021/06/23 00:01:24;;;;;;;0.10;0.10;;;13.40;99.90;;;;;;5015333;28;20061;-87
2021/06/23 00:03:51;;;;;;;0.10;0.10;;;13.30;99.90;;;;;;5021368;28;20060;-87
2021/06/23 00:06:17;;;;;;;0.00;0.00;;;13.30;99.90;;;;;;5027713;28;20049;-87
2021/06/23 00:08:42;;;;;;;0.10;0.10;;;13.40;99.90;;;;;;5027931;28;20083;-87
2021/06/23 00:11:08;;;;;;;0.40;0.07;;;13.40;99.90;;;;;;5020054;28;20551;-88
2021/06/23 00:13:35;;;;;;;0.00;0.00;;;13.40;99.90;;;;;;5022072;28;20130;-88
2021/06/23 00:16:05;;;;;;;0.10;0.10;;;13.30;99.90;;;;;;5016644;28;20072;-88
2021/06/23 00:18:31;;;;;;;0.10;0.10;;;13.30;99.90;;;;;;5026783;28;20035;-87
2021/06/23 00:20:57;;;;;;;0.10;0.10;;;13.20;99.90;;;;;;5028119;28;20029;-87
2021/06/23 00:23:23;;;;;;;0.10;0.10;;;13.20;99.90;;;;;;5027416;28;20044;-87
2021/06/23 00:25:50;;;;;;;0.10;0.10;;;13.20;99.90;;;;;;5028324;28;20116;-87
2021/06/23 00:28:16;;;;;;;0.00;0.00;;;13.30;99.90;;;;;;5026858;28;20047;-87
2021/06/23 00:30:42;;;;;;;0.20;0.20;;;13.40;99.90;;;;;;5014121;28;20108;-87
2021/06/23 00:33:15;;;;;;;0.10;0.10;;;13.60;99.90;;;;;;5024090;28;20112;-87
2021/06/23 00:35:41;;;;;;;0.10;0.10;;;13.80;99.90;;;;;;5021307;28;20274;-87
2021/06/23 00:38:07;;;;;;;0.10;0.10;;;13.90;99.90;;;;;;5011609;28;20030;-87
2021/06/23 00:40:33;;;;;;;0.00;0.00;;;14.00;99.90;;;;;;5024302;28;20033;-87
2021/06/23 00:42:59;;;;;;;0.00;0.00;;;14.10;99.90;;;;;;5024562;28;20100;-87
2021/06/23 00:45:26;;;;;;;0.10;0.10;;;14.20;99.90;;;;;;5008498;28;20492;-87
2021/06/23 00:47:54;;;;;;;0.10;0.10;;;14.30;99.90;;;;;;5009370;28;20037;-87
2021/06/23 00:50:20;;;;;;;0.10;0.10;;;14.30;99.90;;;;;;5018419;28;20816;-87
2021/06/23 00:52:48;;;;;;;0.00;0.00;;;14.40;99.90;;;;;;5026339;28;20040;-88
2021/06/23 00:55:20;;;;;;;0.10;0.10;;;14.50;99.90;;;;;;5013686;28;20025;-87
2021/06/23 00:57:49;;;;;;;0.43;0.22;;;14.60;99.90;;;;;;5015850;28;20104;-87
2021/06/23 01:00:17;;;;;;;0.00;0.00;;;14.60;99.90;;;;;;5042704;28;20670;-87
2021/06/23 01:02:44;;;;;;;0.00;0.00;;;14.70;99.90;;;;;;5012694;28;20032;-87
2021/06/23 01:05:10;;;;;;;0.10;0.10;;;14.70;99.90;;;;;;4971181;28;1394345;-86
2021/06/23 01:07:36;;;;;;;0.30;0.30;;;14.70;99.90;;;;;;5011506;28;20034;-86
2021/06/23 01:10:03;;;;;;;0.30;0.30;;;14.70;99.90;;;;;;5041644;28;20083;-85
2021/06/23 01:12:28;;;;;;;0.10;0.10;;;14.70;99.90;;;;;;5011995;28;20077;-86
2021/06/23 01:14:59;;;;;;;0.23;0.23;;;14.70;99.90;;;;;;5009795;28;20038;-86
2021/06/23 01:17:31;;;;;;;0.88;0.20;;;14.70;99.90;;;;;;5009415;28;20049;-86
2021/06/23 01:20:09;;;;;;;0.20;0.20;;;14.70;99.90;;;;;;5021345;28;20029;-86
2021/06/23 01:22:39;;;;;;;0.47;0.32;;;14.70;99.90;;;;;;5013844;28;20083;-86
2021/06/23 01:25:08;;;;;;;0.10;0.10;;;14.80;99.90;;;;;;5023926;28;20392;-86
2021/06/23 01:27:34;;;;;;;0.70;0.30;;;14.80;99.90;;;;;;5009309;28;20125;-85
2021/06/23 01:30:00;;;;;;;0.27;0.27;;;14.80;99.90;;;;;;5023927;28;20463;-86
2021/06/23 01:32:26;;;;;;;0.77;0.77;;;14.70;99.90;;;;;;5013363;28;20020;-86
2021/06/23 01:34:52;;;;;;;0.10;0.10;;;14.80;99.90;;;;;;5046015;28;20057;-86
2021/06/23 01:37:17;;;;;;;0.10;0.10;;;14.80;99.90;;;;;;5033283;28;20053;-87
2021/06/23 01:39:43;;;;;;;0.20;0.20;;;14.70;99.90;;;;;;5022634;28;20491;-87
2021/06/23 01:42:09;;;;;;;0.17;0.17;;;14.80;99.90;;;;;;5013710;28;20578;-87
2021/06/23 01:44:35;;;;;;;0.10;0.10;;;14.80;99.90;;;;;;5041740;28;20566;-87
2021/06/23 01:47:02;;;;;;;0.10;0.10;;;14.70;99.90;;;;;;5033066;28;20025;-87
2021/06/23 01:49:28;;;;;;;0.20;0.20;;;14.80;99.90;;;;;;5026328;28;20034;-87
2021/06/23 01:51:54;;;;;;;0.00;0.00;;;14.80;99.90;;;;;;5047823;28;20521;-87
2021/06/23 01:54:20;;;;;;;1.98;0.30;;;14.80;99.90;;;;;;5030792;28;20516;-88
2021/06/23 01:56:46;;;;;;;1.73;0.57;;;14.70;99.90;;;;;;5030480;28;20450;-87
2021/06/23 01:59:14;;;;;;;0.10;0.10;;;14.70;99.90;;;;;;5026733;28;20030;-88
2021/06/23 02:01:51;;;;;;;0.10;0.10;;;14.70;99.90;;;;;;5010689;28;20927;-87
2021/06/23 02:04:42;;;;;;;0.00;0.00;;;14.70;99.90;;;;;;5025949;28;20036;-88
2021/06/23 02:07:39;;;;;;;0.00;0.00;;;14.80;99.90;;;;;;5024855;28;20054;-88
2021/06/23 02:10:18;;;;;;;0.10;0.10;;;15.00;99.90;;;;;;5020712;28;20115;-87
2021/06/23 02:12:53;;;;;;;0.00;0.00;;;14.90;99.90;;;;;;5030094;28;20018;-88
2021/06/23 02:15:19;;;;;;;0.20;0.20;;;14.90;99.90;;;;;;5046820;28;20033;-87
2021/06/23 02:17:46;;;;;;;0.07;0.07;;;14.90;99.90;;;;;;5031999;28;20022;-88
2021/06/23 02:20:15;;;;;;;0.10;0.10;;;14.80;99.90;;;;;;5030314;28;20030;-88
2021/06/23 02:22:43;;;;;;;0.15;0.15;;;14.90;99.90;;;;;;5012706;28;20018;-87
2021/06/23 02:25:13;;;;;;;0.30;0.30;;;14.90;99.90;;;;;;5013985;28;20044;-87
2021/06/23 02:27:40;;;;;;;0.10;0.10;;;15.00;99.90;;;;;;5021196;28;20059;-88
2021/06/23 02:30:08;;;;;;;0.00;0.00;;;14.90;99.90;;;;;;5032123;28;20099;-86
2021/06/23 02:32:35;;;;;;;0.10;0.10;;;14.90;99.90;;;;;;5031513;28;20018;-87
2021/06/23 02:35:03;;;;;;;0.30;0.30;;;14.90;99.90;;;;;;5029897;28;20048;-87
2021/06/23 02:37:29;;;;;;;0.10;0.10;;;14.90;99.90;;;;;;5047187;28;20083;-87
2021/06/23 02:39:56;;;;;;;0.05;0.05;;;14.90;99.90;;;;;;5019877;28;20088;-87
2021/06/23 02:42:22;;;;;;;;;;;14.80;99.90;;;;;;5012736;28;20036;-87
2021/06/23 02:44:48;;;;;;;2.45;0.98;;;14.80;99.90;;;;;;5029900;28;19917;-87
2021/06/23 02:47:19;;;;;;;0.03;0.03;;;14.80;99.90;;;;;;5031664;28;20041;-87
2021/06/23 02:49:46;;;;;;;0.00;0.00;;;14.80;99.90;;;;;;5021404;28;20775;-86
2021/06/23 02:52:13;;;;;;;0.00;0.00;;;14.90;99.90;;;;;;5026311;28;20026;-87
2021/06/23 02:54:40;;;;;;;;;;;14.90;99.90;;;;;;5017953;28;20430;-87
2021/06/23 02:57:06;;;;;;;0.00;0.00;;;14.70;99.90;;;;;;5030735;28;19960;-87
2021/06/23 02:59:34;;;;;;;0.00;0.00;;;14.80;99.90;;;;;;5030308;28;20025;-86
2021/06/23 03:02:01;;;;;;;0.10;0.10;;;14.80;99.90;;;;;;5029946;28;20144;-86
2021/06/23 03:04:27;;;;;;;;;;;14.80;99.90;;;;;;5029471;28;20033;-86
2021/06/23 03:06:53;;;;;;;;;;;14.80;99.90;;;;;;5031360;28;19921;-87
2021/06/23 03:09:19;;;;;;;0.57;0.25;;;14.90;99.90;;;;;;5022205;28;19947;-87
2021/06/23 03:11:46;;;;;;;0.00;0.00;;;14.80;99.90;;;;;;5029469;28;20037;-86
2021/06/23 03:14:12;;;;;;;;;;;14.90;99.90;;;;;;5030245;28;20129;-87
2021/06/23 03:16:38;;;;;;;0.00;0.00;;;14.80;99.90;;;;;;5026121;28;19988;-86
2021/06/23 03:19:06;;;;;;;0.10;0.10;;;14.70;99.90;;;;;;5019987;28;20038;-86
2021/06/23 03:21:33;;;;;;;0.15;0.15;;;14.70;99.90;;;;;;5009622;28;20632;-87
2021/06/23 03:23:59;;;;;;;0.00;0.00;;;14.70;99.90;;;;;;5029258;28;20025;-87
2021/06/23 03:26:27;;;;;;;2.17;0.35;;;14.70;99.90;;;;;;5013280;28;20080;-87
2021/06/23 03:28:53;;;;;;;0.03;0.03;;;14.80;99.90;;;;;;5010880;28;20025;-87
2021/06/23 03:31:19;;;;;;;0.10;0.10;;;14.80;99.90;;;;;;5019552;28;20024;-87
2021/06/23 03:33:45;;;;;;;0.00;0.00;;;14.70;99.90;;;;;;5044994;28;20033;-87
2021/06/23 03:36:11;;;;;;;0.10;0.10;;;14.70;99.90;;;;;;5043842;28;20346;-87
2021/06/23 03:38:37;;;;;;;0.00;0.00;;;14.70;99.90;;;;;;5039718;28;20081;-86
2021/06/23 03:41:03;;;;;;;1.00;0.53;;;14.60;99.90;;;;;;5024766;28;20272;-87
2021/06/23 03:43:29;;;;;;;0.10;0.10;;;14.60;99.90;;;;;;5030132;28;20033;-87
2021/06/23 03:45:55;;;;;;;2.07;0.40;;;14.60;99.90;;;;;;5030303;28;20256;-88
2021/06/23 03:48:21;;;;;;;0.10;0.10;;;14.60;99.90;;;;;;5030165;28;20068;-87
2021/06/23 03:50:48;;;;;;;0.20;0.20;;;14.60;99.90;;;;;;5027729;28;20025;-87
2021/06/23 03:53:15;;;;;;;0.00;0.00;;;14.60;99.90;;;;;;5029932;28;20021;-87
2021/06/23 03:55:41;;;;;;;0.38;0.38;;;14.40;99.90;;;;;;5027690;28;20045;-87
2021/06/23 03:58:08;;;;;;;1.23;0.28;;;14.40;99.90;;;;;;5024632;28;20033;-87
2021/06/23 04:00:34;;;;;;;0.00;0.00;;;14.40;99.90;;;;;;5024509;28;20030;-87
2021/06/23 04:03:00;;;;;;;0.30;0.30;;;14.30;99.90;;;;;;5027875;28;20045;-87
2021/06/23 04:05:26;;;;;;;0.10;0.10;;;14.30;99.90;;;;;;5024097;28;20041;-87
2021/06/23 04:07:53;;;;;;;0.10;0.10;;;14.50;99.90;;;;;;5025776;28;20028;-88
2021/06/23 04:10:19;;;;;;;0.88;0.65;;;14.50;99.90;;;;;;5028159;28;20061;-87
2021/06/23 04:12:46;;;;;;;0.40;0.40;;;14.60;99.90;;;;;;5029818;28;20033;-88
2021/06/23 04:15:14;;;;;;;0.38;0.25;;;14.60;99.90;;;;;;5019724;28;20029;-88
2021/06/23 04:17:40;;;;;;;0.22;0.22;;;14.60;99.90;;;;;;5018549;28;20033;-88
2021/06/23 04:20:09;;;;;;;0.10;0.10;;;14.50;99.90;;;;;;5029159;28;20033;-87
2021/06/23 04:22:36;;;;;;;0.20;0.20;;;14.60;99.90;;;;;;5029018;28;20037;-87
2021/06/23 04:25:03;;;;;;;0.30;0.30;;;14.60;99.90;;;;;;5029592;28;20022;-86
2021/06/23 04:27:29;;;;;;;1.00;0.22;;;14.60;99.90;;;;;;5029559;28;20033;-87
2021/06/23 04:29:55;;;;;;;0.00;0.00;;;14.50;99.90;;;;;;5026845;28;20034;-87
2021/06/23 04:32:21;;;;;;;0.40;0.40;;;14.50;99.90;;;;;;5029545;28;20022;-87
2021/06/23 04:34:47;;;;;;;0.07;0.07;;;14.50;99.90;;;;;;5027890;28;20044;-87
2021/06/23 04:37:14;;;;;;;0.35;0.20;;;14.70;99.90;;;;;;5028389;28;20037;-87
2021/06/23 04:39:40;;;;;;;0.00;0.00;;;15.80;99.90;;;;;;5028903;28;20727;-87
2021/06/23 04:42:07;;;;;;;0.10;0.10;;;15.70;99.90;;;;;;5027629;28;20143;-89
2021/06/23 04:44:33;;;;;;;;;;;16.20;99.90;;;;;;5029532;28;20049;-90
2021/06/23 04:46:59;;;;;;;0.00;0.00;;;16.20;99.90;;;;;;5030245;28;19968;-89
2021/06/23 04:49:25;;;;;;;0.00;0.00;;;18.10;99.90;;;;;;5031651;28;20033;-90
2021/06/23 04:51:51;;;;;;;0.00;0.00;;;19.60;99.90;;;;;;5023029;28;20113;-91
2021/06/23 04:54:17;;;;;;;0.00;0.00;;;20.40;99.90;;;;;;5028437;28;20113;-90
2021/06/23 04:56:43;;;;;;;0.00;0.00;;;20.90;99.90;;;;;;5011214;28;20032;-91
2021/06/23 04:59:09;;;;;;;0.00;0.00;;;21.60;99.90;;;;;;5010636;28;20121;-91
2021/06/23 05:01:36;;;;;;;0.30;0.30;;;21.10;99.90;;;;;;5023942;28;20029;-89
2021/06/23 05:04:03;;;;;;;0.20;0.10;;;21.40;99.90;;;;;;5011057;28;20040;-84
2021/06/23 05:06:31;;;;;;;0.00;0.00;;;20.60;99.90;;;;;;5012174;28;20829;-84
2021/06/23 05:08:58;;;;;;;0.08;0.08;;;18.50;99.90;;;;;;5020801;28;20450;-83
2021/06/23 05:11:24;;;;;;;0.00;0.00;;;17.80;99.90;;;;;;5019728;28;20020;-83
2021/06/23 05:13:50;;;;;;;0.00;0.00;;;18.00;99.90;;;;;;5018671;28;20118;-87
2021/06/23 05:16:22;;;;;;;0.00;0.00;;;17.90;99.90;;;;;;5034656;28;20062;-86
2021/06/23 05:18:51;;;;;;;0.00;0.00;;;17.60;99.90;;;;;;5016891;28;20558;-86
2021/06/23 05:21:18;;;;;;;0.00;0.00;;;17.70;99.90;;;;;;5030477;28;20051;-87
2021/06/23 05:23:44;;;;;;;0.00;0.00;;;18.10;99.90;;;;;;5026788;28;20156;-86
2021/06/23 05:26:11;;;;;;;0.00;0.00;;;17.80;99.90;;;;;;5020776;28;20064;-86
2021/06/23 05:28:37;;;;;;;;;;;17.50;99.90;;;;;;5020950;28;20128;-86
2021/06/23 05:31:03;;;;;;;0.90;0.15;;;17.70;99.90;;;;;;5019530;28;19909;-87
2021/06/23 05:33:29;;;;;;;0.00;0.00;;;17.80;99.90;;;;;;5018860;28;20515;-87
2021/06/23 05:35:54;;;;;;;0.00;0.00;;;17.80;99.90;;;;;;5020891;28;20117;-86
2021/06/23 05:38:20;;;;;;;0.30;0.17;;;17.80;99.90;;;;;;5010758;28;20034;-87
2021/06/23 05:40:46;;;;;;;0.30;0.10;;;17.40;99.90;;;;;;5021796;28;20037;-87
2021/06/23 05:43:12;;;;;;;0.10;0.10;;;17.10;99.90;;;;;;5023050;28;20849;-85
2021/06/23 05:45:38;;;;;;;0.33;0.20;;;17.00;99.90;;;;;;5007645;28;20040;-86
2021/06/23 05:48:04;;;;;;;0.20;0.20;;;16.90;99.90;;;;;;5007699;28;20029;-87
2021/06/23 05:50:31;;;;;;;0.00;0.00;;;16.90;99.90;;;;;;5007678;28;20022;-87
2021/06/23 05:52:58;;;;;;;0.10;0.10;;;16.50;99.90;;;;;;5042153;28;20030;-89
2021/06/23 05:55:24;;;;;;;;;;;16.40;99.90;;;;;;5023274;28;20050;-87
2021/06/23 05:57:53;;;;;;;0.28;0.28;;;16.40;99.90;;;;;;5006828;28;19956;-86
2021/06/23 06:00:24;;;;;;;0.20;0.20;;;16.10;99.90;;;;;;5023511;28;20631;-85
2021/06/23 06:02:50;;;;;;;0.00;0.00;;;16.20;99.90;;;;;;5027096;28;20048;-86
2021/06/23 06:05:17;;;;;;;0.00;0.00;;;17.50;99.90;;;;;;5028415;28;20025;-86
2021/06/23 06:07:42;;;;;;;0.30;0.20;;;18.30;99.90;;;;;;5028330;28;20113;-88
2021/06/23 06:10:10;;;;;;;1.20;0.73;;;18.10;99.90;;;;;;5016839;28;20490;-87
2021/06/23 06:12:36;;;;;;;0.38;0.28;;;18.40;99.90;;;;;;5025706;28;20029;-88
2021/06/23 06:15:03;;;;;;;0.00;0.00;;;18.50;99.90;;;;;;5027446;28;20128;-88
2021/06/23 06:17:28;;;;;;;0.08;0.08;;;18.30;99.90;;;;;;5028655;28;20033;-88
2021/06/23 06:19:54;;;;;;;0.07;0.07;;;18.40;99.90;;;;;;5028595;28;20021;-88
2021/06/23 06:22:20;;;;;;;0.10;0.10;;;18.50;99.90;;;;;;5019866;28;20087;-88
2021/06/23 06:24:46;;;;;;;0.10;0.10;;;18.00;99.90;;;;;;5011913;28;20033;-87
2021/06/23 06:27:12;;;;;;;0.00;0.00;;;18.10;99.90;;;;;;5014948;28;20034;-88
2021/06/23 06:29:38;;;;;;;0.57;0.23;;;18.20;99.90;;;;;;5030729;28;20036;-88
2021/06/23 06:32:04;;;;;;;0.97;0.47;;;18.20;99.90;;;;;;5026840;28;20406;-87
2021/06/23 06:34:30;;;;;;;0.00;0.00;;;18.30;99.90;;;;;;5020940;28;20041;-87
2021/06/23 06:36:56;;;;;;;0.00;0.00;;;18.80;99.90;;;;;;5016266;28;20026;-87
2021/06/23 06:39:22;;;;;;;0.10;0.10;;;19.20;99.90;;;;;;5048620;28;20045;-92
2021/06/23 06:41:48;;;;;;;0.00;0.00;;;19.70;99.90;;;;;;5023319;28;20119;-88
2021/06/23 06:44:14;;;;;;;0.00;0.00;;;21.40;99.90;;;;;;5012026;28;20077;-88
2021/06/23 06:46:42;;;;;;;0.00;0.00;;;21.10;99.90;;;;;;5022999;28;20030;-88
2021/06/23 06:49:10;;;;;;;0.10;0.10;;;21.20;99.90;;;;;;5023247;28;20026;-87
2021/06/23 06:51:39;;;;;;;0.47;0.47;;;20.70;99.90;;;;;;5016847;28;20048;-87
2021/06/23 06:54:05;;;;;;;0.00;0.00;;;20.10;99.90;;;;;;5015954;28;20037;-88
2021/06/23 06:56:32;;;;;;;0.00;0.00;;;19.90;99.90;;;;;;5015909;28;20053;-88
2021/06/23 06:59:00;;;;;;;0.00;0.00;;;20.50;99.90;;;;;;5016951;28;20499;-88
2021/06/23 07:01:27;;;;;;;0.28;0.22;;;20.30;99.90;;;;;;5022260;28;20515;-88
2021/06/23 07:03:55;;;;;;;0.30;0.30;;;19.60;99.90;;;;;;5019299;28;20034;-89
2021/06/23 07:06:26;;;;;;;0.00;0.00;;;19.90;99.90;;;;;;5042466;28;20195;-88
2021/06/23 07:08:53;;;;;;;0.00;0.00;;;19.10;99.90;;;;;;5018952;28;20037;-88
2021/06/23 07:11:22;;;;;;;0.00;0.00;;;18.70;99.90;;;;;;5035969;28;20029;-88
2021/06/23 07:13:50;;;;;;;0.00;0.00;;;19.10;99.90;;;;;;5029884;28;20033;-88
2021/06/23 07:16:16;;;;;;;0.10;0.10;;;19.50;99.90;;;;;;5046166;28;20032;-88
2021/06/23 07:18:45;;;;;;;0.13;0.13;;;19.10;99.90;;;;;;5028505;28;20029;-88
2021/06/23 07:21:25;;;;;;;0.00;0.00;;;19.10;99.90;;;;;;5016126;28;20029;-88
2021/06/23 07:23:57;;;;;;;0.10;0.10;;;18.70;99.90;;;;;;5029816;28;20526;-87
2021/06/23 07:26:26;;;;;;;0.00;0.00;;;19.00;99.90;;;;;;5044708;28;20363;-87
2021/06/23 07:28:54;;;;;;;0.10;0.10;;;18.70;99.90;;;;;;5019062;28;20136;-87
2021/06/23 07:31:54;;;;;;;1.77;0.30;;;19.40;99.90;;;;;;5023052;28;20037;-86
2021/06/23 07:34:34;;;;;;;0.17;0.17;;;20.20;99.90;;;;;;5022821;28;20084;-87
2021/06/23 07:37:05;;;;;;;0.00;0.00;;;20.50;99.90;;;;;;5022089;28;20028;-87
2021/06/23 07:39:34;;;;;;;0.00;0.00;;;20.80;99.90;;;;;;5024962;28;20045;-89
2021/06/23 07:42:04;;;;;;;0.00;0.00;;;22.00;99.90;;;;;;5016876;28;20083;-89
2021/06/23 07:44:38;;;;;;;0.00;0.00;;;28.10;99.90;;;;;;5026655;28;20029;-90
2021/06/23 07:47:08;;;;;;;0.10;0.10;;;29.80;99.90;;;;;;5019288;28;20030;-89
2021/06/23 07:49:40;;;;;;;0.00;0.00;;;29.90;99.80;;;;;;5017446;28;20041;-89
2021/06/23 08:10:37;;;;;;;0.28;0.10;;;22.60;98.40;;;;;;5015088;28;20037;-90
2021/06/23 08:13:05;;;;;;;0.00;0.00;;;22.70;98.90;;;;;;5026944;28;20796;-90
2021/06/23 08:15:37;;;;;;;0.00;0.00;;;22.30;99.70;;;;;;5015350;28;20025;-90
2021/06/23 08:18:04;;;;;;;0.00;0.00;;;27.40;97.80;;;;;;5011582;28;20104;-89
2021/06/23 08:20:31;;;;;;;0.00;0.00;;;30.00;92.80;;;;;;5018310;28;20049;-90
2021/06/23 08:22:58;;;;;;;0.00;0.00;;;30.30;84.00;;;;;;5025210;28;20034;-89
2021/06/23 08:25:26;;;;;;;0.10;0.10;;;28.40;91.20;;;;;;5035927;28;20026;-90
2021/06/23 08:27:52;;;;;;;0.00;0.00;;;29.80;83.60;;;;;;5017478;28;20065;-90
2021/06/23 08:30:23;;;;;;;0.10;0.10;;;26.70;88.60;;;;;;5020078;28;20136;-89
2021/06/23 08:32:49;;;;;;;0.00;0.00;;;25.00;92.00;;;;;;5021397;28;20105;-89
2021/06/23 08:35:22;;;;;;;0.10;0.10;;;23.00;94.20;;;;;;5023485;28;20026;-89
2021/06/23 08:37:49;;;;;;;0.00;0.00;;;22.50;96.60;;;;;;5035215;28;20041;-89
2021/06/23 08:40:20;;;;;;;0.00;0.00;;;22.50;96.60;;;;;;5010294;28;20428;-89
2021/06/23 08:42:46;;;;;;;0.00;0.00;;;22.30;96.40;;;;;;5038069;28;20044;-89
2021/06/23 08:45:13;;;;;;;0.00;0.00;;;23.00;96.10;;;;;;5020225;28;20730;-90
2021/06/23 08:47:45;;;;;;;0.00;0.00;;;30.20;91.20;;;;;;5010507;28;20080;-89
2021/06/23 08:50:17;;;;;;;0.00;0.00;;;30.80;88.70;;;;;;5022237;28;20051;-90
2021/06/23 08:52:44;;;;;;;0.00;0.00;;;33.20;78.60;;;;;;5010783;28;20041;-90
2021/06/23 08:55:19;;;;;;;0.00;0.00;;;32.50;73.70;;;;;;5021559;28;20168;-90
2021/06/23 08:57:47;;;;;;;0.00;0.00;;;33.90;67.00;;;;;;5023585;28;20030;-91
2021/06/23 09:00:14;;;;;;;0.13;0.00;;;37.50;60.20;;;;;;5022752;28;20038;-90
2021/06/23 09:02:40;;;;;;;0.00;0.00;;;31.20;62.90;;;;;;5010551;28;20033;-90
2021/06/23 09:05:07;;;;;;;;;;;31.40;62.30;;;;;;5039571;28;20124;-91
2021/06/23 09:07:55;;;;;;;0.00;0.00;;;31.70;63.00;;;;;;5012373;28;19928;-90
2021/06/23 09:10:21;;;;;;;0.05;0.00;;;32.20;62.20;;;;;;5023332;28;20033;-90
2021/06/23 09:13:09;;;;;;;0.00;0.00;;;27.60;72.40;;;;;;5039349;28;20045;-90
2021/06/23 09:15:54;;;;;;;0.00;0.00;;;24.40;84.00;;;;;;5018485;28;20041;-90
2021/06/23 09:18:26;;;;;;;0.00;0.00;;;23.90;84.10;;;;;;5029257;28;20116;-89
2021/06/23 09:21:00;;;;;;;0.05;0.05;;;24.30;83.30;;;;;;5030144;28;20022;-89
2021/06/23 09:23:39;;;;;;;0.00;0.00;;;26.00;83.80;;;;;;5025982;28;20041;-90
2021/06/23 09:26:26;;;;;;;0.10;0.10;;;34.10;64.40;;;;;;5039850;28;20084;-90
2021/06/23 09:32:35;;;;;;;0.00;0.00;;;36.70;41.50;;;;;;4977051;28;20563;-89
2021/06/23 09:35:01;;;;;;;0.00;0.00;;;37.20;44.80;;;;;;4968672;28;20027;-90
2021/06/23 09:37:35;;;;;;;0.00;0.00;;;37.10;42.80;;;;;;4984662;28;20027;-91
2021/06/23 09:40:21;;;;;;;0.10;0.00;;;35.40;41.70;;;;;;4987774;28;20038;-91
2021/06/23 09:42:48;;;;;;;0.00;0.00;;;35.90;40.80;;;;;;4987600;28;20030;-91
2021/06/23 09:45:16;;;;;;;0.00;0.00;;;37.10;34.20;;;;;;4964714;28;20081;-91
2021/06/23 09:47:45;;;;;;;0.05;0.05;;;38.80;35.00;;;;;;4985985;28;20751;-91
2021/06/23 09:50:42;;;;;;;0.00;0.00;;;36.30;32.50;;;;;;4986106;28;20073;-91
2021/06/23 09:53:13;;;;;;;0.00;0.00;;;36.20;29.60;;;;;;4967036;28;20034;-91
2021/06/23 09:55:47;;;;;;;0.00;0.00;;;36.50;36.20;;;;;;4982281;28;20047;-90
2021/06/23 09:58:29;;;;;;;0.00;0.00;;;36.90;28.70;;;;;;4989867;28;20065;-90
2021/06/23 10:01:03;;;;;;;0.10;0.10;;;36.30;29.90;;;;;;4974329;28;20023;-90
2021/06/23 10:03:50;;;;;;;0.00;0.00;;;31.50;37.20;;;;;;4989480;28;20546;-90
2021/06/23 10:06:34;;;;;;;0.00;0.00;;;28.50;48.70;;;;;;5004939;28;20108;-90
2021/06/23 10:09:20;;;;;;;0.00;0.00;;;27.20;51.70;;;;;;5030214;28;20541;-90
2021/06/23 10:11:48;;;;;;;0.00;0.00;;;33.40;43.60;;;;;;5016550;28;20029;-90
2021/06/23 10:14:14;;;;;;;0.00;0.00;;;38.20;32.50;;;;;;5029473;28;20030;-90
2021/06/23 10:16:39;;;;;;;0.00;0.00;;;37.50;27.30;;;;;;5025728;28;20512;-90
2021/06/23 10:19:07;;;;;;;0.00;0.00;;;39.10;26.20;;;;;;5029631;28;20033;-90
2021/06/23 10:21:34;;;;;;;0.00;0.00;;;38.10;28.70;;;;;;5028147;28;20025;-90
2021/06/23 10:24:00;;;;;;;0.00;0.00;;;38.90;23.90;;;;;;5036549;28;20033;-90
2021/06/23 10:26:27;;;;;;;0.00;0.00;;;38.90;22.50;;;;;;5027560;28;20025;-90
2021/06/23 10:28:55;;;;;;;0.00;0.00;;;36.30;27.50;;;;;;5037534;28;20087;-90
2021/06/23 10:31:26;;;;;;;0.08;0.00;;;35.70;24.10;;;;;;5031542;28;20033;-89
2021/06/23 10:33:52;;;;;;;0.00;0.00;;;37.50;23.00;;;;;;5026972;28;20025;-90
2021/06/23 10:36:21;;;;;;;0.00;0.00;;;36.40;21.60;;;;;;5025251;28;20026;-90
2021/06/23 10:38:48;;;;;;;0.08;0.08;;;35.60;23.80;;;;;;5032075;28;20470;-90
2021/06/23 10:41:15;;;;;;;0.00;0.00;;;35.90;23.80;;;;;;5032875;28;20030;-90
2021/06/23 10:43:43;;;;;;;0.00;0.00;;;34.90;26.60;;;;;;5012520;28;20459;-89
2021/06/23 10:46:12;;;;;;;0.00;0.00;;;32.70;24.50;;;;;;5028400;28;20129;-90
2021/06/23 10:48:55;;;;;;;0.10;0.10;;;27.70;37.90;;;;;;5042415;28;20034;-90
2021/06/23 10:51:28;;;;;;;0.10;0.10;;;26.20;42.40;;;;;;5032635;28;20112;-91
2021/06/23 10:53:54;;;;;;;0.00;0.00;;;25.90;43.60;;;;;;5037008;28;20384;-90
2021/06/23 10:56:44;;;;;;;0.00;0.00;;;26.60;43.60;;;;;;5031891;28;20108;-90
2021/06/23 10:59:33;;;;;;;0.00;0.00;;;25.30;47.20;;;;;;5024958;28;20041;-89
2021/06/23 11:02:10;;;;;;;0.00;0.00;;;24.30;50.50;;;;;;5022483;28;20667;-90
2021/06/23 11:05:00;;;;;;;0.00;0.00;;;24.10;52.90;;;;;;5024700;28;20033;-90
2021/06/23 11:07:50;;;;;;;0.00;0.00;;;24.30;52.50;;;;;;5031369;28;20041;-89
2021/06/23 11:10:18;;;;;;;0.00;0.00;;;24.40;50.90;;;;;;5027499;28;20064;-90
2021/06/23 11:12:47;;;;;;;0.00;0.00;;;24.50;52.90;;;;;;5029414;28;20053;-90
2021/06/23 11:15:21;;;;;;;0.00;0.00;;;25.30;49.20;;;;;;5024815;28;20428;-89
2021/06/23 11:17:49;;;;;;;0.00;0.00;;;31.40;42.80;;;;;;5031356;28;20028;-90
2021/06/23 11:20:21;;;;;;;1.40;0.50;;;34.70;26.20;;;;;;5033488;28;20084;-90
2021/06/23 11:22:56;;;;;;;0.00;0.00;;;35.00;25.40;;;;;;5032996;28;20021;-90
2021/06/23 11:25:34;;;;;;;0.00;0.00;;;35.20;28.70;;;;;;5033383;28;20032;-91
2021/06/23 11:28:09;;;;;;;0.00;0.00;;;33.60;33.60;;;;;;5015317;28;20515;-90
2021/06/23 11:30:35;;;;;;;0.43;0.10;;;28.40;39.60;;;;;;5033261;28;20124;-89
2021/06/23 11:33:26;;;;;;;0.00;0.00;;;26.70;42.90;;;;;;5028599;28;20030;-90
2021/06/23 11:36:12;;;;;;;0.00;0.00;;;25.80;46.30;;;;;;5029716;28;20033;-90
2021/06/23 11:38:39;;;;;;;2.55;0.20;;;24.50;51.90;;;;;;5021816;28;20026;-90
2021/06/23 11:41:07;;;;;;;0.00;0.00;;;24.00;54.40;;;;;;5031354;28;20385;-90
2021/06/23 11:43:33;;;;;;;0.00;0.00;;;24.10;52.00;;;;;;5015160;28;20083;-90
2021/06/23 11:46:00;;;;;;;0.00;0.00;;;24.50;52.40;;;;;;5011564;28;20113;-90
2021/06/23 11:48:26;;;;;;;0.00;0.00;;;25.30;53.50;;;;;;5031223;28;20033;-90
2021/06/23 11:50:54;;;;;;;0.00;0.00;;;25.40;54.70;;;;;;5011289;28;20017;-90
2021/06/23 11:53:21;;;;;;;0.00;0.00;;;25.30;56.10;;;;;;5031550;28;20029;-90
2021/06/23 11:55:52;;;;;;;2.17;0.52;;;25.40;55.50;;;;;;5025433;28;20072;-89
2021/06/23 11:58:18;;;;;;;0.10;0.10;;;25.40;54.40;;;;;;5027598;28;20499;-90
2021/06/23 12:00:44;;;;;;;0.00;0.00;;;25.30;54.00;;;;;;5030870;28;20030;-90
2021/06/23 12:03:15;;;;;;;0.10;0.10;;;24.80;53.70;;;;;;5012444;28;20055;-90
2021/06/23 12:05:41;;;;;;;0.03;0.03;;;24.80;55.10;;;;;;5014343;28;20038;-90
2021/06/23 12:08:07;;;;;;;0.00;0.00;;;25.20;54.30;;;;;;5014027;28;20112;-89
2021/06/23 12:10:34;;;;;;;0.08;0.05;;;25.60;54.00;;;;;;5029845;28;20112;-89
2021/06/23 12:13:00;;;;;;;0.00;0.00;;;25.50;55.60;;;;;;5027165;28;20071;-89
2021/06/23 12:15:27;;;;;;;;;;;24.50;56.10;;;;;;5029989;28;20025;-90
2021/06/23 12:17:56;;;;;;;0.00;0.00;;;24.70;54.30;;;;;;5014353;28;19905;-90
2021/06/23 12:20:23;;;;;;;0.00;0.00;;;24.60;55.00;;;;;;5031148;28;20025;-90
2021/06/23 12:22:56;;;;;;;0.00;0.00;;;25.10;54.70;;;;;;5031885;28;20025;-90
2021/06/23 12:25:24;;;;;;;0.00;0.00;;;25.60;53.30;;;;;;5014879;28;20547;-90
2021/06/23 12:27:53;;;;;;;0.20;0.20;;;25.30;56.30;;;;;;5031043;28;20040;-90
2021/06/23 12:30:26;;;;;;;0.00;0.00;;;24.90;58.00;;;;;;5011755;28;20574;-90
2021/06/23 12:32:54;;;;;;;0.00;0.00;;;25.70;57.40;;;;;;4995126;28;20450;-90
2021/06/23 12:35:20;;;;;;;0.03;0.03;;;25.40;56.50;;;;;;5003286;28;20057;-90
2021/06/23 12:37:47;;;;;;;0.10;0.10;;;26.10;55.90;;;;;;5030925;28;20052;-90
2021/06/23 12:40:14;;;;;;;0.10;0.00;;;26.40;55.50;;;;;;5013986;28;20034;-90
2021/06/23 12:42:39;;;;;;;;;;;26.10;69.50;;;;;;5014020;28;20033;-90
2021/06/23 12:45:06;;;;;;;0.00;0.00;;;25.90;56.70;;;;;;5013999;28;20366;-90
2021/06/23 12:47:31;;;;;;;0.10;0.10;;;25.70;58.50;;;;;;5013427;28;20110;-90
2021/06/23 12:49:57;;;;;;;0.00;0.00;;;25.50;58.10;;;;;;5013898;28;20502;-90
2021/06/23 12:52:23;;;;;;;0.00;0.00;;;25.00;57.40;;;;;;5013804;28;20025;-90
2021/06/23 12:54:49;;;;;;;0.00;0.00;;;25.10;58.10;;;;;;5031553;28;20025;-89
2021/06/23 12:57:15;;;;;;;0.08;0.08;;;24.90;58.50;;;;;;5030760;28;20603;-90
2021/06/23 12:59:41;;;;;;;0.00;0.00;;;25.10;57.60;;;;;;5030330;28;20435;-89
2021/06/23 13:02:07;;;;;;;0.10;0.00;;;25.00;57.80;;;;;;5029028;28;20465;-89
2021/06/23 13:04:33;;;;;;;0.00;0.00;;;25.50;58.60;;;;;;5029117;28;20037;-89
2021/06/23 13:06:59;;;;;;;0.00;0.00;;;26.40;54.00;;;;;;5030633;28;20176;-89
2021/06/23 13:09:24;;;;;;;0.43;0.43;;;25.60;56.90;;;;;;5030651;28;20029;-89
2021/06/23 13:11:50;;;;;;;0.03;0.03;;;25.00;57.10;;;;;;5030713;28;20021;-89
2021/06/23 13:14:16;;;;;;;0.00;0.00;;;24.80;57.70;;;;;;5030745;28;20029;-90
2021/06/23 13:16:43;;;;;;;0.00;0.00;;;25.50;55.90;;;;;;5030863;28;20101;-90
2021/06/23 13:19:09;;;;;;;0.00;0.00;;;26.10;53.70;;;;;;5029339;28;20053;-90
2021/06/23 13:21:36;;;;;;;0.30;0.30;;;26.40;52.00;;;;;;5025483;28;20064;-90